sensor_id;sensor_type;location;lat;lon;timestamp;temperature;humidity
37240;DHT22;23130;48.760;9.178;2023-03-13T00:01:32;6.30;99.90
37240;DHT22;23130;48.760;9.178;2023-03-13T00:03:59;6.40;99.90
37240;DHT22;23130;48.760;9.178;2023-03-13T00:06:26;6.40;99.90
37240;DHT22;23130;48.760;9.178;2023-03-13T00:08:53;6.30;99.90
37240;DHT22;23130;48.760;9.178;2023-03-13T00:11:19;6.40;99.90
37240;DHT22;23130;48.760;9.178;2023-03-13T00:13:45;6.40;99.90
37240;DHT22;23130;48.760;9.178;2023-03-13T00:16:12;6.40;99.90
37240;DHT22;23130;48.760;9.178;2023-03-13T00:18:49;6.50;99.90
37240;DHT22;23130;48.760;9.178;2023-03-13T00:21:16;6.50;99.90
37240;DHT22;23130;48.760;9.178;2023-03-13T00:23:42;6.50;99.90
37240;DHT22;23130;48.760;9.178;2023-03-13T00:26:10;6.50;99.90
37240;DHT22;23130;48.760;9.178;2023-03-13T00:28:38;6.60;99.90
37240;DHT22;23130;48.760;9.178;2023-03-13T00:33:38;6.60;99.90
37240;DHT22;23130;48.760;9.178;2023-03-13T00:36:09;6.60;99.90
37240;DHT22;23130;48.760;9.178;2023-03-13T00:38:35;6.70;99.90
37240;DHT22;23130;48.760;9.178;2023-03-13T00:41:03;6.70;99.90
37240;DHT22;23130;48.760;9.178;2023-03-13T00:43:30;6.70;99.90
37240;DHT22;23130;48.760;9.178;2023-03-13T00:45:55;6.80;99.90
37240;DHT22;23130;48.760;9.178;2023-03-13T00:48:21;6.90;99.90
37240;DHT22;23130;48.760;9.178;2023-03-13T00:50:47;7.00;99.90
37240;DHT22;23130;48.760;9.178;2023-03-13T00:53:13;7.10;99.90
37240;DHT22;23130;48.760;9.178;2023-03-13T00:55:39;7.30;99.90
37240;DHT22;23130;48.760;9.178;2023-03-13T00:58:14;7.40;99.90
37240;DHT22;23130;48.760;9.178;2023-03-13T01:00:40;7.50;99.90
37240;DHT22;23130;48.760;9.178;2023-03-13T01:03:05;7.60;99.90
37240;DHT22;23130;48.760;9.178;2023-03-13T01:05:31;7.70;99.90
37240;DHT22;23130;48.760;9.178;2023-03-13T01:07:56;7.80;99.90
37240;DHT22;23130;48.760;9.178;2023-03-13T01:10:22;7.90;99.90
37240;DHT22;23130;48.760;9.178;2023-03-13T01:12:48;8.00;99.90
37240;DHT22;23130;48.760;9.178;2023-03-13T01:15:13;8.00;99.90
37240;DHT22;23130;48.760;9.178;2023-03-13T01:17:39;8.10;99.90
37240;DHT22;23130;48.760;9.178;2023-03-13T01:20:05;8.20;99.90
37240;DHT22;23130;48.760;9.178;2023-03-13T01:22:32;8.30;99.90
37240;DHT22;23130;48.760;9.178;2023-03-13T01:24:57;8.30;99.90
37240;DHT22;23130;48.760;9.178;2023-03-13T01:27:23;8.40;99.90
37240;DHT22;23130;48.760;9.178;2023-03-13T01:29:48;8.40;99.90
37240;DHT22;23130;48.760;9.178;2023-03-13T01:32:14;8.40;99.90
37240;DHT22;23130;48.760;9.178;2023-03-13T01:34:39;8.50;99.90
37240;DHT22;23130;48.760;9.178;2023-03-13T01:37:05;8.50;99.90
37240;DHT22;23130;48.760;9.178;2023-03-13T01:39:30;8.50;99.90
37240;DHT22;23130;48.760;9.178;2023-03-13T01:41:56;8.50;99.90
37240;DHT22;23130;48.760;9.178;2023-03-13T01:44:24;8.50;99.90
37240;DHT22;23130;48.760;9.178;2023-03-13T01:46:50;8.50;99.90
37240;DHT22;23130;48.760;9.178;2023-03-13T01:49:22;8.60;99.90
37240;DHT22;23130;48.760;9.178;2023-03-13T01:51:58;8.60;99.90
37240;DHT22;23130;48.760;9.178;2023-03-13T01:57:31;8.70;99.90
37240;DHT22;23130;48.760;9.178;2023-03-13T02:00:08;8.80;99.90
37240;DHT22;23130;48.760;9.178;2023-03-13T02:02:37;8.80;99.90
37240;DHT22;23130;48.760;9.178;2023-03-13T02:05:06;8.80;99.90
37240;DHT22;23130;48.760;9.178;2023-03-13T02:07:47;8.80;99.90
37240;DHT22;23130;48.760;9.178;2023-03-13T02:10:16;8.80;99.90
37240;DHT22;23130;48.760;9.178;2023-03-13T02:12:47;8.80;99.90
37240;DHT22;23130;48.760;9.178;2023-03-13T02:15:19;8.70;99.90
37240;DHT22;23130;48.760;9.178;2023-03-13T02:17:47;8.80;99.90
37240;DHT22;23130;48.760;9.178;2023-03-13T02:20:14;8.80;99.90
37240;DHT22;23130;48.760;9.178;2023-03-13T02:25:43;8.80;99.90
37240;DHT22;23130;48.760;9.178;2023-03-13T02:28:31;8.80;99.90
37240;DHT22;23130;48.760;9.178;2023-03-13T02:30:58;8.70;99.90
37240;DHT22;23130;48.760;9.178;2023-03-13T02:33:29;8.80;99.90
37240;DHT22;23130;48.760;9.178;2023-03-13T02:35:58;8.80;99.90
37240;DHT22;23130;48.760;9.178;2023-03-13T02:38:27;8.90;99.90
37240;DHT22;23130;48.760;9.178;2023-03-13T02:40:54;9.00;99.90
37240;DHT22;23130;48.760;9.178;2023-03-13T02:43:29;9.00;99.90
37240;DHT22;23130;48.760;9.178;2023-03-13T02:46:13;9.10;99.90
37240;DHT22;23130;48.760;9.178;2023-03-13T02:48:44;9.20;99.90
37240;DHT22;23130;48.760;9.178;2023-03-13T02:53:42;9.20;99.90
37240;DHT22;23130;48.760;9.178;2023-03-13T02:56:08;9.30;99.90
37240;DHT22;23130;48.760;9.178;2023-03-13T02:58:38;9.30;99.90
37240;DHT22;23130;48.760;9.178;2023-03-13T03:01:04;9.30;99.90
37240;DHT22;23130;48.760;9.178;2023-03-13T03:03:33;9.40;99.90
37240;DHT22;23130;48.760;9.178;2023-03-13T03:06:00;9.30;99.90
37240;DHT22;23130;48.760;9.178;2023-03-13T03:08:26;9.30;99.90
37240;DHT22;23130;48.760;9.178;2023-03-13T03:10:51;9.30;99.90
37240;DHT22;23130;48.760;9.178;2023-03-13T03:13:17;9.30;99.90
37240;DHT22;23130;48.760;9.178;2023-03-13T03:15:42;9.40;99.90
37240;DHT22;23130;48.760;9.178;2023-03-13T03:18:08;9.40;99.90
37240;DHT22;23130;48.760;9.178;2023-03-13T03:20:34;9.40;99.90
37240;DHT22;23130;48.760;9.178;2023-03-13T03:22:59;9.30;99.90
37240;DHT22;23130;48.760;9.178;2023-03-13T03:25:25;9.30;99.90
37240;DHT22;23130;48.760;9.178;2023-03-13T03:27:50;9.20;99.90
37240;DHT22;23130;48.760;9.178;2023-03-13T03:30:16;9.20;99.90
37240;DHT22;23130;48.760;9.178;2023-03-13T03:32:41;9.10;99.90
37240;DHT22;23130;48.760;9.178;2023-03-13T03:35:07;9.10;99.90
37240;DHT22;23130;48.760;9.178;2023-03-13T03:37:33;9.10;99.90
37240;DHT22;23130;48.760;9.178;2023-03-13T03:39:58;9.10;99.90
37240;DHT22;23130;48.760;9.178;2023-03-13T03:42:24;9.10;99.90
37240;DHT22;23130;48.760;9.178;2023-03-13T03:44:49;9.10;99.90
37240;DHT22;23130;48.760;9.178;2023-03-13T03:47:15;9.20;99.90
37240;DHT22;23130;48.760;9.178;2023-03-13T03:49:40;9.20;99.90
37240;DHT22;23130;48.760;9.178;2023-03-13T03:52:06;9.20;99.90
37240;DHT22;23130;48.760;9.178;2023-03-13T03:54:31;9.20;99.90
37240;DHT22;23130;48.760;9.178;2023-03-13T03:56:57;9.30;99.90
37240;DHT22;23130;48.760;9.178;2023-03-13T03:59:23;9.40;99.90
37240;DHT22;23130;48.760;9.178;2023-03-13T04:01:48;9.50;99.90
37240;DHT22;23130;48.760;9.178;2023-03-13T04:04:14;9.60;99.90
37240;DHT22;23130;48.760;9.178;2023-03-13T04:06:39;9.70;99.90
37240;DHT22;23130;48.760;9.178;2023-03-13T04:09:05;9.90;99.90
37240;DHT22;23130;48.760;9.178;2023-03-13T04:11:30;9.90;99.90
37240;DHT22;23130;48.760;9.178;2023-03-13T04:13:56;10.00;99.90
37240;DHT22;23130;48.760;9.178;2023-03-13T04:16:21;10.10;99.90
37240;DHT22;23130;48.760;9.178;2023-03-13T04:18:47;10.20;99.90
37240;DHT22;23130;48.760;9.178;2023-03-13T04:21:13;10.40;99.90
37240;DHT22;23130;48.760;9.178;2023-03-13T04:23:38;10.50;99.90
37240;DHT22;23130;48.760;9.178;2023-03-13T04:26:04;10.60;99.90
37240;DHT22;23130;48.760;9.178;2023-03-13T04:28:29;10.70;99.90
37240;DHT22;23130;48.760;9.178;2023-03-13T04:30:55;10.80;99.90
37240;DHT22;23130;48.760;9.178;2023-03-13T04:33:23;10.90;99.90
37240;DHT22;23130;48.760;9.178;2023-03-13T04:35:49;10.90;99.90
37240;DHT22;23130;48.760;9.178;2023-03-13T04:38:14;11.00;99.90
37240;DHT22;23130;48.760;9.178;2023-03-13T04:40:40;11.00;99.90
37240;DHT22;23130;48.760;9.178;2023-03-13T04:43:07;11.00;99.90
37240;DHT22;23130;48.760;9.178;2023-03-13T04:45:33;11.10;99.90
37240;DHT22;23130;48.760;9.178;2023-03-13T04:47:59;11.10;99.90
37240;DHT22;23130;48.760;9.178;2023-03-13T04:50:24;11.10;99.90
37240;DHT22;23130;48.760;9.178;2023-03-13T04:52:50;11.10;99.90
37240;DHT22;23130;48.760;9.178;2023-03-13T04:55:16;11.00;99.90
37240;DHT22;23130;48.760;9.178;2023-03-13T04:57:42;11.00;99.90
37240;DHT22;23130;48.760;9.178;2023-03-13T05:00:08;11.10;99.90
37240;DHT22;23130;48.760;9.178;2023-03-13T05:02:34;11.00;99.90
37240;DHT22;23130;48.760;9.178;2023-03-13T05:05:00;11.00;99.90
37240;DHT22;23130;48.760;9.178;2023-03-13T05:07:26;11.10;99.90
37240;DHT22;23130;48.760;9.178;2023-03-13T05:09:51;11.10;99.90
37240;DHT22;23130;48.760;9.178;2023-03-13T05:12:17;11.00;99.90
37240;DHT22;23130;48.760;9.178;2023-03-13T05:14:42;11.00;99.90
37240;DHT22;23130;48.760;9.178;2023-03-13T05:17:08;11.00;99.90
37240;DHT22;23130;48.760;9.178;2023-03-13T05:19:35;11.00;99.90
37240;DHT22;23130;48.760;9.178;2023-03-13T05:22:00;11.00;99.90
37240;DHT22;23130;48.760;9.178;2023-03-13T05:24:26;10.90;99.90
37240;DHT22;23130;48.760;9.178;2023-03-13T05:26:52;10.90;99.90
37240;DHT22;23130;48.760;9.178;2023-03-13T05:29:17;10.90;99.90
37240;DHT22;23130;48.760;9.178;2023-03-13T05:31:43;10.90;99.90
37240;DHT22;23130;48.760;9.178;2023-03-13T05:34:08;10.90;99.90
37240;DHT22;23130;48.760;9.178;2023-03-13T05:36:34;10.90;99.90
37240;DHT22;23130;48.760;9.178;2023-03-13T05:39:00;10.90;99.90
37240;DHT22;23130;48.760;9.178;2023-03-13T05:41:25;11.00;99.90
37240;DHT22;23130;48.760;9.178;2023-03-13T05:43:51;11.00;99.90
37240;DHT22;23130;48.760;9.178;2023-03-13T05:46:16;11.10;99.90
37240;DHT22;23130;48.760;9.178;2023-03-13T05:48:42;11.10;99.90
37240;DHT22;23130;48.760;9.178;2023-03-13T05:51:09;11.20;99.90
37240;DHT22;23130;48.760;9.178;2023-03-13T05:53:35;11.20;99.90
37240;DHT22;23130;48.760;9.178;2023-03-13T05:56:00;11.30;99.90
37240;DHT22;23130;48.760;9.178;2023-03-13T05:58:26;11.30;99.90
37240;DHT22;23130;48.760;9.178;2023-03-13T06:00:52;11.30;99.90
37240;DHT22;23130;48.760;9.178;2023-03-13T06:03:18;11.30;99.90
37240;DHT22;23130;48.760;9.178;2023-03-13T06:05:43;11.30;99.90
37240;DHT22;23130;48.760;9.178;2023-03-13T06:08:09;11.30;99.90
37240;DHT22;23130;48.760;9.178;2023-03-13T06:10:35;11.30;99.90
37240;DHT22;23130;48.760;9.178;2023-03-13T06:13:00;11.40;99.90
37240;DHT22;23130;48.760;9.178;2023-03-13T06:15:27;11.50;99.90
37240;DHT22;23130;48.760;9.178;2023-03-13T06:17:53;11.50;99.90
37240;DHT22;23130;48.760;9.178;2023-03-13T06:20:18;11.60;99.90
37240;DHT22;23130;48.760;9.178;2023-03-13T06:22:44;11.70;99.90
37240;DHT22;23130;48.760;9.178;2023-03-13T06:25:10;11.80;99.90
37240;DHT22;23130;48.760;9.178;2023-03-13T06:27:35;11.90;99.90
37240;DHT22;23130;48.760;9.178;2023-03-13T06:30:02;12.00;99.90
37240;DHT22;23130;48.760;9.178;2023-03-13T06:32:27;12.00;99.90
37240;DHT22;23130;48.760;9.178;2023-03-13T06:34:53;12.10;99.90
37240;DHT22;23130;48.760;9.178;2023-03-13T06:37:18;12.10;99.90
37240;DHT22;23130;48.760;9.178;2023-03-13T06:39:44;12.20;99.90
37240;DHT22;23130;48.760;9.178;2023-03-13T06:42:10;12.30;99.90
37240;DHT22;23130;48.760;9.178;2023-03-13T06:44:35;12.40;99.90
37240;DHT22;23130;48.760;9.178;2023-03-13T06:47:01;12.50;99.90
37240;DHT22;23130;48.760;9.178;2023-03-13T06:49:26;12.60;99.90
37240;DHT22;23130;48.760;9.178;2023-03-13T06:51:56;12.70;99.90
37240;DHT22;23130;48.760;9.178;2023-03-13T06:54:23;12.70;99.90
37240;DHT22;23130;48.760;9.178;2023-03-13T06:56:48;12.80;99.90
37240;DHT22;23130;48.760;9.178;2023-03-13T06:59:14;12.70;99.90
37240;DHT22;23130;48.760;9.178;2023-03-13T07:01:39;12.60;99.90
37240;DHT22;23130;48.760;9.178;2023-03-13T07:04:05;12.60;99.90
37240;DHT22;23130;48.760;9.178;2023-03-13T07:06:30;12.50;99.90
37240;DHT22;23130;48.760;9.178;2023-03-13T07:08:56;12.50;99.90
37240;DHT22;23130;48.760;9.178;2023-03-13T07:11:21;12.40;99.90
37240;DHT22;23130;48.760;9.178;2023-03-13T07:13:47;12.40;99.90
37240;DHT22;23130;48.760;9.178;2023-03-13T07:16:12;12.40;99.90
37240;DHT22;23130;48.760;9.178;2023-03-13T07:18:39;12.40;99.90
37240;DHT22;23130;48.760;9.178;2023-03-13T07:21:06;12.40;99.90
37240;DHT22;23130;48.760;9.178;2023-03-13T07:23:33;12.50;99.90
37240;DHT22;23130;48.760;9.178;2023-03-13T07:26:05;12.50;99.90
37240;DHT22;23130;48.760;9.178;2023-03-13T07:28:31;12.50;99.90
37240;DHT22;23130;48.760;9.178;2023-03-13T07:31:16;12.50;99.90
37240;DHT22;23130;48.760;9.178;2023-03-13T07:33:42;12.50;99.90
37240;DHT22;23130;48.760;9.178;2023-03-13T07:36:09;12.50;99.90
37240;DHT22;23130;48.760;9.178;2023-03-13T07:38:35;12.50;99.90
37240;DHT22;23130;48.760;9.178;2023-03-13T07:41:01;12.50;99.90
37240;DHT22;23130;48.760;9.178;2023-03-13T07:43:27;12.50;99.90
37240;DHT22;23130;48.760;9.178;2023-03-13T07:45:57;12.60;99.90
37240;DHT22;23130;48.760;9.178;2023-03-13T07:48:27;12.60;99.90
37240;DHT22;23130;48.760;9.178;2023-03-13T07:50:54;12.60;99.90
37240;DHT22;23130;48.760;9.178;2023-03-13T07:53:20;12.60;99.90
37240;DHT22;23130;48.760;9.178;2023-03-13T07:58:29;12.70;99.90
37240;DHT22;23130;48.760;9.178;2023-03-13T08:00:55;12.70;99.90
37240;DHT22;23130;48.760;9.178;2023-03-13T08:03:22;12.70;99.90
37240;DHT22;23130;48.760;9.178;2023-03-13T08:05:59;12.80;99.90
37240;DHT22;23130;48.760;9.178;2023-03-13T08:08:28;13.00;99.90
37240;DHT22;23130;48.760;9.178;2023-03-13T08:11:09;13.20;99.90
37240;DHT22;23130;48.760;9.178;2023-03-13T08:13:35;13.30;99.90
37240;DHT22;23130;48.760;9.178;2023-03-13T08:18:28;13.70;99.90
37240;DHT22;23130;48.760;9.178;2023-03-13T08:20:53;13.80;99.90
37240;DHT22;23130;48.760;9.178;2023-03-13T08:23:19;13.90;99.90
37240;DHT22;23130;48.760;9.178;2023-03-13T08:25:44;14.20;99.90
37240;DHT22;23130;48.760;9.178;2023-03-13T08:28:10;14.30;99.90
37240;DHT22;23130;48.760;9.178;2023-03-13T08:30:35;14.40;99.90
37240;DHT22;23130;48.760;9.178;2023-03-13T08:33:01;14.60;99.90
37240;DHT22;23130;48.760;9.178;2023-03-13T08:35:28;14.70;99.90
37240;DHT22;23130;48.760;9.178;2023-03-13T08:37:53;14.70;99.90
37240;DHT22;23130;48.760;9.178;2023-03-13T08:40:19;14.80;99.90
37240;DHT22;23130;48.760;9.178;2023-03-13T08:42:44;15.00;99.90
37240;DHT22;23130;48.760;9.178;2023-03-13T08:45:10;15.00;99.90
37240;DHT22;23130;48.760;9.178;2023-03-13T08:47:36;14.90;99.90
37240;DHT22;23130;48.760;9.178;2023-03-13T08:50:02;15.00;99.90
37240;DHT22;23130;48.760;9.178;2023-03-13T08:52:28;15.00;99.90
37240;DHT22;23130;48.760;9.178;2023-03-13T08:54:53;15.00;99.90
37240;DHT22;23130;48.760;9.178;2023-03-13T08:57:19;15.00;99.90
37240;DHT22;23130;48.760;9.178;2023-03-13T08:59:44;15.10;99.90
37240;DHT22;23130;48.760;9.178;2023-03-13T09:02:10;15.10;99.90
37240;DHT22;23130;48.760;9.178;2023-03-13T09:04:35;15.10;99.90
37240;DHT22;23130;48.760;9.178;2023-03-13T09:07:01;15.20;99.90
37240;DHT22;23130;48.760;9.178;2023-03-13T09:09:26;15.10;99.90
37240;DHT22;23130;48.760;9.178;2023-03-13T09:11:52;15.10;99.90
37240;DHT22;23130;48.760;9.178;2023-03-13T09:14:18;15.20;99.90
37240;DHT22;23130;48.760;9.178;2023-03-13T09:16:43;15.10;99.90
37240;DHT22;23130;48.760;9.178;2023-03-13T09:19:10;15.20;99.90
37240;DHT22;23130;48.760;9.178;2023-03-13T09:21:37;15.20;99.90
37240;DHT22;23130;48.760;9.178;2023-03-13T09:24:03;15.20;99.90
37240;DHT22;23130;48.760;9.178;2023-03-13T09:26:29;15.40;99.90
37240;DHT22;23130;48.760;9.178;2023-03-13T09:28:55;15.40;99.90
37240;DHT22;23130;48.760;9.178;2023-03-13T09:31:24;15.40;99.90
37240;DHT22;23130;48.760;9.178;2023-03-13T09:33:50;15.60;99.90
37240;DHT22;23130;48.760;9.178;2023-03-13T09:36:17;15.70;99.90
37240;DHT22;23130;48.760;9.178;2023-03-13T09:38:42;15.80;99.90
37240;DHT22;23130;48.760;9.178;2023-03-13T09:44:16;15.70;99.90
37240;DHT22;23130;48.760;9.178;2023-03-13T09:49:37;15.80;99.90
37240;DHT22;23130;48.760;9.178;2023-03-13T09:55:17;15.90;99.90
37240;DHT22;23130;48.760;9.178;2023-03-13T10:00:37;16.40;99.90
37240;DHT22;23130;48.760;9.178;2023-03-13T10:05:50;16.90;99.90
37240;DHT22;23130;48.760;9.178;2023-03-13T10:08:22;16.90;99.90
37240;DHT22;23130;48.760;9.178;2023-03-13T10:16:29;17.10;99.90
37240;DHT22;23130;48.760;9.178;2023-03-13T10:18:57;17.10;99.90
37240;DHT22;23130;48.760;9.178;2023-03-13T10:21:25;17.30;99.90
37240;DHT22;23130;48.760;9.178;2023-03-13T10:26:43;17.00;99.90
37240;DHT22;23130;48.760;9.178;2023-03-13T10:29:21;16.90;99.90
37240;DHT22;23130;48.760;9.178;2023-03-13T10:31:57;16.80;99.90
37240;DHT22;23130;48.760;9.178;2023-03-13T10:34:25;16.80;99.90
37240;DHT22;23130;48.760;9.178;2023-03-13T10:36:58;17.10;99.90
37240;DHT22;23130;48.760;9.178;2023-03-13T10:39:26;17.50;99.90
37240;DHT22;23130;48.760;9.178;2023-03-13T10:42:09;17.80;99.90
37240;DHT22;23130;48.760;9.178;2023-03-13T10:44:36;18.10;99.90
37240;DHT22;23130;48.760;9.178;2023-03-13T10:47:02;18.10;99.90
37240;DHT22;23130;48.760;9.178;2023-03-13T10:49:30;17.90;99.90
37240;DHT22;23130;48.760;9.178;2023-03-13T10:51:59;17.90;99.90
37240;DHT22;23130;48.760;9.178;2023-03-13T10:54:32;17.90;99.90
37240;DHT22;23130;48.760;9.178;2023-03-13T10:57:20;17.90;99.90
37240;DHT22;23130;48.760;9.178;2023-03-13T10:59:51;17.90;99.90
37240;DHT22;23130;48.760;9.178;2023-03-13T11:02:33;18.10;99.90
37240;DHT22;23130;48.760;9.178;2023-03-13T11:05:00;18.40;99.90
37240;DHT22;23130;48.760;9.178;2023-03-13T11:07:33;18.50;99.90
37240;DHT22;23130;48.760;9.178;2023-03-13T11:10:49;18.50;99.90
37240;DHT22;23130;48.760;9.178;2023-03-13T11:12:51;18.50;99.90
37240;DHT22;23130;48.760;9.178;2023-03-13T11:15:41;18.60;99.90
37240;DHT22;23130;48.760;9.178;2023-03-13T11:18:35;18.60;99.90
37240;DHT22;23130;48.760;9.178;2023-03-13T11:21:03;18.60;99.90
37240;DHT22;23130;48.760;9.178;2023-03-13T11:23:37;18.80;99.90
37240;DHT22;23130;48.760;9.178;2023-03-13T11:31:22;18.90;99.90
37240;DHT22;23130;48.760;9.178;2023-03-13T11:34:03;18.60;99.90
37240;DHT22;23130;48.760;9.178;2023-03-13T11:36:35;18.70;99.90
37240;DHT22;23130;48.760;9.178;2023-03-13T11:55:28;18.80;99.90
37240;DHT22;23130;48.760;9.178;2023-03-13T11:58:21;18.50;99.90
37240;DHT22;23130;48.760;9.178;2023-03-13T12:00:57;18.40;99.90
37240;DHT22;23130;48.760;9.178;2023-03-13T12:03:39;18.40;99.90
37240;DHT22;23130;48.760;9.178;2023-03-13T12:06:17;18.50;99.90
37240;DHT22;23130;48.760;9.178;2023-03-13T12:08:48;18.50;99.90
37240;DHT22;23130;48.760;9.178;2023-03-13T12:11:27;18.60;99.90
37240;DHT22;23130;48.760;9.178;2023-03-13T12:14:01;18.80;99.90
37240;DHT22;23130;48.760;9.178;2023-03-13T12:19:10;19.10;99.90
37240;DHT22;23130;48.760;9.178;2023-03-13T12:21:47;19.30;99.90
37240;DHT22;23130;48.760;9.178;2023-03-13T12:24:35;19.50;99.90
37240;DHT22;23130;48.760;9.178;2023-03-13T12:27:16;19.60;99.90
37240;DHT22;23130;48.760;9.178;2023-03-13T12:29:51;19.70;99.90
37240;DHT22;23130;48.760;9.178;2023-03-13T12:32:39;19.60;99.90
37240;DHT22;23130;48.760;9.178;2023-03-13T12:35:18;19.50;99.90
37240;DHT22;23130;48.760;9.178;2023-03-13T12:40:24;19.50;99.90
37240;DHT22;23130;48.760;9.178;2023-03-13T12:43:01;19.50;99.90
37240;DHT22;23130;48.760;9.178;2023-03-13T12:45:30;19.60;99.90
37240;DHT22;23130;48.760;9.178;2023-03-13T12:48:33;19.80;99.90
37240;DHT22;23130;48.760;9.178;2023-03-13T12:54:15;19.90;99.90
37240;DHT22;23130;48.760;9.178;2023-03-13T12:59:49;20.00;99.90
37240;DHT22;23130;48.760;9.178;2023-03-13T13:02:23;20.10;99.90
37240;DHT22;23130;48.760;9.178;2023-03-13T13:04:51;20.20;99.90
37240;DHT22;23130;48.760;9.178;2023-03-13T13:12:42;20.30;99.90
37240;DHT22;23130;48.760;9.178;2023-03-13T13:15:18;20.40;99.90
37240;DHT22;23130;48.760;9.178;2023-03-13T13:20:30;20.70;99.90
37240;DHT22;23130;48.760;9.178;2023-03-13T13:23:22;20.80;99.90
37240;DHT22;23130;48.760;9.178;2023-03-13T13:25:49;20.80;99.90
37240;DHT22;23130;48.760;9.178;2023-03-13T13:30:50;21.10;99.90
37240;DHT22;23130;48.760;9.178;2023-03-13T13:35:45;21.20;99.90
37240;DHT22;23130;48.760;9.178;2023-03-13T13:43:35;21.40;99.90
37240;DHT22;23130;48.760;9.178;2023-03-13T13:48:43;21.50;99.90
37240;DHT22;23130;48.760;9.178;2023-03-13T13:53:57;21.30;99.90
37240;DHT22;23130;48.760;9.178;2023-03-13T14:04:29;20.80;99.90
37240;DHT22;23130;48.760;9.178;2023-03-13T14:07:01;20.70;99.90
37240;DHT22;23130;48.760;9.178;2023-03-13T14:09:38;20.70;99.90
37240;DHT22;23130;48.760;9.178;2023-03-13T14:15:22;20.80;99.90
37240;DHT22;23130;48.760;9.178;2023-03-13T14:17:50;20.80;99.90
37240;DHT22;23130;48.760;9.178;2023-03-13T14:22:46;20.90;99.90
37240;DHT22;23130;48.760;9.178;2023-03-13T14:25:12;20.90;99.90
37240;DHT22;23130;48.760;9.178;2023-03-13T14:27:45;20.80;99.90
37240;DHT22;23130;48.760;9.178;2023-03-13T14:30:14;20.90;99.90
37240;DHT22;23130;48.760;9.178;2023-03-13T14:32:40;20.90;99.90
37240;DHT22;23130;48.760;9.178;2023-03-13T14:35:07;21.00;99.90
37240;DHT22;23130;48.760;9.178;2023-03-13T14:37:45;21.20;99.90
37240;DHT22;23130;48.760;9.178;2023-03-13T14:42:46;21.10;99.90
37240;DHT22;23130;48.760;9.178;2023-03-13T14:45:30;21.10;99.90
37240;DHT22;23130;48.760;9.178;2023-03-13T14:48:02;21.00;99.90
37240;DHT22;23130;48.760;9.178;2023-03-13T14:50:28;20.90;99.90
37240;DHT22;23130;48.760;9.178;2023-03-13T14:53:00;20.80;99.90
37240;DHT22;23130;48.760;9.178;2023-03-13T14:55:32;20.70;99.90
37240;DHT22;23130;48.760;9.178;2023-03-13T15:00:46;20.60;99.90
37240;DHT22;23130;48.760;9.178;2023-03-13T15:08:27;20.40;99.90
37240;DHT22;23130;48.760;9.178;2023-03-13T15:10:52;20.50;99.90
37240;DHT22;23130;48.760;9.178;2023-03-13T15:13:33;20.50;99.90
37240;DHT22;23130;48.760;9.178;2023-03-13T15:16:00;20.50;99.90
37240;DHT22;23130;48.760;9.178;2023-03-13T15:18:33;20.50;99.90
37240;DHT22;23130;48.760;9.178;2023-03-13T15:21:19;20.40;99.90
37240;DHT22;23130;48.760;9.178;2023-03-13T15:23:52;20.40;99.90
37240;DHT22;23130;48.760;9.178;2023-03-13T15:26:18;20.30;99.90
37240;DHT22;23130;48.760;9.178;2023-03-13T15:28:43;20.30;99.90
37240;DHT22;23130;48.760;9.178;2023-03-13T15:31:12;20.30;99.90
37240;DHT22;23130;48.760;9.178;2023-03-13T15:33:39;20.30;99.90
37240;DHT22;23130;48.760;9.178;2023-03-13T15:36:05;20.30;99.90
37240;DHT22;23130;48.760;9.178;2023-03-13T15:38:30;20.30;99.90
37240;DHT22;23130;48.760;9.178;2023-03-13T15:40:56;20.30;99.90
37240;DHT22;23130;48.760;9.178;2023-03-13T15:43:22;20.30;99.90
37240;DHT22;23130;48.760;9.178;2023-03-13T15:45:49;20.20;99.90
37240;DHT22;23130;48.760;9.178;2023-03-13T15:48:20;20.20;99.90
37240;DHT22;23130;48.760;9.178;2023-03-13T15:50:56;20.30;99.90
37240;DHT22;23130;48.760;9.178;2023-03-13T15:53:33;20.30;99.90
37240;DHT22;23130;48.760;9.178;2023-03-13T15:56:01;20.40;99.90
37240;DHT22;23130;48.760;9.178;2023-03-13T15:58:28;20.30;99.90
37240;DHT22;23130;48.760;9.178;2023-03-13T16:00:55;20.40;99.90
37240;DHT22;23130;48.760;9.178;2023-03-13T16:03:23;20.40;99.90
37240;DHT22;23130;48.760;9.178;2023-03-13T16:05:50;20.40;99.90
37240;DHT22;23130;48.760;9.178;2023-03-13T16:08:21;20.30;99.90
37240;DHT22;23130;48.760;9.178;2023-03-13T16:10:47;20.20;99.90
37240;DHT22;23130;48.760;9.178;2023-03-13T16:13:13;20.10;99.90
37240;DHT22;23130;48.760;9.178;2023-03-13T16:15:39;20.00;99.90
37240;DHT22;23130;48.760;9.178;2023-03-13T16:18:05;20.10;99.90
37240;DHT22;23130;48.760;9.178;2023-03-13T16:20:32;20.10;99.90
37240;DHT22;23130;48.760;9.178;2023-03-13T16:22:58;20.10;99.90
37240;DHT22;23130;48.760;9.178;2023-03-13T16:25:28;20.10;99.90
37240;DHT22;23130;48.760;9.178;2023-03-13T16:27:54;20.00;99.90
37240;DHT22;23130;48.760;9.178;2023-03-13T16:30:25;19.70;99.90
37240;DHT22;23130;48.760;9.178;2023-03-13T16:32:50;19.60;99.90
37240;DHT22;23130;48.760;9.178;2023-03-13T16:35:16;19.30;99.90
37240;DHT22;23130;48.760;9.178;2023-03-13T16:37:42;19.10;99.90
37240;DHT22;23130;48.760;9.178;2023-03-13T16:40:28;18.90;99.90
37240;DHT22;23130;48.760;9.178;2023-03-13T16:42:54;18.70;99.90
37240;DHT22;23130;48.760;9.178;2023-03-13T16:45:20;18.50;99.90
37240;DHT22;23130;48.760;9.178;2023-03-13T16:47:46;18.40;99.90
37240;DHT22;23130;48.760;9.178;2023-03-13T16:52:46;18.10;99.90
37240;DHT22;23130;48.760;9.178;2023-03-13T16:55:11;18.00;99.90
37240;DHT22;23130;48.760;9.178;2023-03-13T16:57:37;17.80;99.90
37240;DHT22;23130;48.760;9.178;2023-03-13T17:00:11;17.80;99.90
37240;DHT22;23130;48.760;9.178;2023-03-13T17:02:37;17.80;99.90
37240;DHT22;23130;48.760;9.178;2023-03-13T17:05:03;17.70;99.90
37240;DHT22;23130;48.760;9.178;2023-03-13T17:07:29;17.70;99.90
37240;DHT22;23130;48.760;9.178;2023-03-13T17:09:55;17.50;99.90
37240;DHT22;23130;48.760;9.178;2023-03-13T17:12:20;17.40;99.90
37240;DHT22;23130;48.760;9.178;2023-03-13T17:14:46;17.30;99.90
37240;DHT22;23130;48.760;9.178;2023-03-13T17:17:15;17.20;99.90
37240;DHT22;23130;48.760;9.178;2023-03-13T17:19:41;17.10;99.90
37240;DHT22;23130;48.760;9.178;2023-03-13T17:22:08;17.00;99.90
37240;DHT22;23130;48.760;9.178;2023-03-13T17:24:33;16.90;99.90
37240;DHT22;23130;48.760;9.178;2023-03-13T17:26:59;16.90;99.90
37240;DHT22;23130;48.760;9.178;2023-03-13T17:29:24;16.90;99.90
37240;DHT22;23130;48.760;9.178;2023-03-13T17:31:50;17.00;99.90
37240;DHT22;23130;48.760;9.178;2023-03-13T17:34:15;16.90;99.90
37240;DHT22;23130;48.760;9.178;2023-03-13T17:36:42;16.90;99.90
37240;DHT22;23130;48.760;9.178;2023-03-13T17:39:12;16.90;99.90
37240;DHT22;23130;48.760;9.178;2023-03-13T17:41:38;17.00;99.90
37240;DHT22;23130;48.760;9.178;2023-03-13T17:44:04;17.00;99.90
37240;DHT22;23130;48.760;9.178;2023-03-13T17:46:43;17.00;99.90